createdAt,value
2023-03-12T00:00:13.877Z,12.00
2023-03-12T00:02:59.664Z,12.10
2023-03-12T00:05:45.697Z,12.10
2023-03-12T00:08:31.273Z,12.20
2023-03-12T00:11:18.425Z,12.30
2023-03-12T00:14:04.094Z,12.20
2023-03-12T00:16:49.935Z,12.30
2023-03-12T00:19:35.615Z,12.30
2023-03-12T00:22:25.665Z,12.20
2023-03-12T00:25:12.754Z,12.20
2023-03-12T00:27:58.806Z,12.30
2023-03-12T00:30:44.198Z,12.30
2023-03-12T00:33:29.897Z,12.30
2023-03-12T00:36:16.434Z,12.30
2023-03-12T00:39:01.936Z,12.20
2023-03-12T00:41:47.801Z,12.20
2023-03-12T00:44:33.356Z,12.20
2023-03-12T00:47:19.211Z,12.20
2023-03-12T00:50:05.212Z,12.20
2023-03-12T00:52:50.832Z,12.10
2023-03-12T00:55:36.707Z,12.10
2023-03-12T00:58:22.544Z,12.10
2023-03-12T01:01:08.487Z,12.10
2023-03-12T01:03:54.600Z,12.10
2023-03-12T01:06:40.166Z,12.00
2023-03-12T01:09:25.817Z,12.10
2023-03-12T01:12:11.603Z,12.00
2023-03-12T01:14:57.113Z,12.00
2023-03-12T01:17:43.202Z,11.90
2023-03-12T01:20:28.864Z,11.90
2023-03-12T01:23:14.536Z,11.90
2023-03-12T01:26:00.142Z,11.90
2023-03-12T01:28:45.804Z,11.90
2023-03-12T01:31:31.765Z,11.80
2023-03-12T01:34:17.673Z,11.70
2023-03-12T01:37:03.367Z,11.60
2023-03-12T01:39:49.179Z,11.50
2023-03-12T01:42:34.836Z,11.50
2023-03-12T01:45:39.572Z,11.30
2023-03-12T01:48:25.782Z,11.20
2023-03-12T01:51:13.204Z,11.30
2023-03-12T01:54:00.486Z,11.40
2023-03-12T01:56:46.921Z,11.40
2023-03-12T01:59:38.336Z,11.20
2023-03-12T02:02:27.130Z,11.20
2023-03-12T02:05:13.207Z,11.20
2023-03-12T02:07:58.763Z,11.30
2023-03-12T02:10:44.665Z,11.40
2023-03-12T02:13:30.589Z,11.40
2023-03-12T02:16:16.353Z,11.40
2023-03-12T02:19:02.370Z,11.40
2023-03-12T02:21:48.164Z,11.40
2023-03-12T02:24:37.161Z,11.40
2023-03-12T02:27:23.426Z,11.30
2023-03-12T02:30:09.587Z,11.30
2023-03-12T02:32:56.034Z,11.30
2023-03-12T02:35:42.355Z,11.30
2023-03-12T02:38:34.324Z,11.20
2023-03-12T02:41:21.919Z,11.10
2023-03-12T02:44:18.247Z,11.00
2023-03-12T02:47:05.707Z,11.00
2023-03-12T02:49:52.425Z,11.00
2023-03-12T02:52:38.619Z,11.00
2023-03-12T02:55:24.450Z,10.90
2023-03-12T02:58:10.372Z,10.80
2023-03-12T03:00:56.070Z,10.80
2023-03-12T03:03:41.797Z,10.80
2023-03-12T03:06:27.413Z,10.70
2023-03-12T03:09:13.028Z,10.60
2023-03-12T03:11:58.915Z,10.60
2023-03-12T03:14:46.413Z,10.60
2023-03-12T03:17:32.280Z,10.60
2023-03-12T03:20:18.068Z,10.60
2023-03-12T03:23:03.673Z,10.60
2023-03-12T03:25:49.436Z,10.70
2023-03-12T03:28:34.963Z,10.60
2023-03-12T03:31:20.778Z,10.50
2023-03-12T03:34:06.974Z,10.30
2023-03-12T03:36:53.036Z,10.20
2023-03-12T03:39:38.882Z,10.10
2023-03-12T03:42:24.767Z,10.20
2023-03-12T03:45:10.965Z,10.30
2023-03-12T03:47:57.927Z,10.30
2023-03-12T03:50:43.585Z,10.20
2023-03-12T03:53:29.439Z,10.30
2023-03-12T03:56:15.990Z,10.30
2023-03-12T03:59:07.593Z,10.30
2023-03-12T04:01:57.334Z,10.30
2023-03-12T04:04:43.627Z,10.30
2023-03-12T04:07:29.488Z,10.30
2023-03-12T04:10:14.951Z,10.30
2023-03-12T04:13:00.936Z,10.20
2023-03-12T04:15:50.920Z,10.20
2023-03-12T04:18:37.300Z,10.20
2023-03-12T04:21:22.773Z,10.30
2023-03-12T04:24:13.272Z,10.40
2023-03-12T04:26:59.402Z,10.20
2023-03-12T04:29:45.486Z,10.20
2023-03-12T04:32:31.410Z,10.20
2023-03-12T04:35:17.358Z,10.30
2023-03-12T04:38:03.418Z,10.10
2023-03-12T04:41:02.430Z,10.20
2023-03-12T04:43:48.733Z,10.30
2023-03-12T04:46:35.571Z,10.50
2023-03-12T04:49:21.349Z,10.40
2023-03-12T04:52:07.025Z,10.20
2023-03-12T04:54:52.986Z,10.20
2023-03-12T04:57:38.763Z,10.10
2023-03-12T05:00:26.285Z,10.00
2023-03-12T05:03:11.949Z,10.10
2023-03-12T05:05:57.576Z,10.10
2023-03-12T05:08:43.313Z,10.10
2023-03-12T05:11:28.940Z,10.10
2023-03-12T05:14:14.670Z,10.10
2023-03-12T05:17:02.079Z,10.10
2023-03-12T05:19:47.711Z,10.10
2023-03-12T05:22:33.593Z,10.10
2023-03-12T05:25:19.473Z,10.10
2023-03-12T05:28:05.173Z,10.10
2023-03-12T05:30:51.524Z,10.20
2023-03-12T05:33:37.663Z,10.20
2023-03-12T05:36:23.296Z,10.30
2023-03-12T05:39:08.878Z,10.40
2023-03-12T05:41:57.153Z,10.40
2023-03-12T05:44:43.559Z,10.30
2023-03-12T05:47:34.268Z,10.40
2023-03-12T05:50:20.163Z,10.50
2023-03-12T05:53:06.014Z,10.50
2023-03-12T05:55:52.326Z,10.50
2023-03-12T05:58:38.368Z,10.40
2023-03-12T06:01:25.573Z,10.60
2023-03-12T06:04:13.450Z,10.40
2023-03-12T06:06:59.509Z,10.40
2023-03-12T06:09:45.705Z,10.40
2023-03-12T06:12:32.848Z,10.40
2023-03-12T06:15:19.720Z,10.40
2023-03-12T06:18:05.920Z,10.40
2023-03-12T06:20:52.598Z,10.30
2023-03-12T06:23:38.466Z,10.50
2023-03-12T06:26:25.450Z,10.60
2023-03-12T06:29:11.217Z,10.50
2023-03-12T06:31:56.795Z,10.40
2023-03-12T06:34:42.347Z,10.40
2023-03-12T06:37:28.238Z,10.30
2023-03-12T06:40:13.913Z,10.20
2023-03-12T06:43:00.572Z,10.20
2023-03-12T06:45:46.587Z,10.40
2023-03-12T06:48:41.450Z,10.50
2023-03-12T06:51:26.887Z,10.30
2023-03-12T06:54:12.324Z,10.40
2023-03-12T06:56:59.497Z,10.50
2023-03-12T06:59:45.038Z,10.50
2023-03-12T07:02:31.019Z,10.50
2023-03-12T07:05:16.383Z,10.50
2023-03-12T07:08:02.225Z,10.40
2023-03-12T07:10:47.679Z,10.40
2023-03-12T07:13:33.390Z,10.40
2023-03-12T07:16:20.240Z,10.60
2023-03-12T07:19:06.308Z,10.50
2023-03-12T07:21:52.629Z,10.50
2023-03-12T07:24:38.546Z,10.40
2023-03-12T07:27:23.842Z,10.40
2023-03-12T07:30:09.898Z,10.50
2023-03-12T07:32:55.743Z,10.60
2023-03-12T07:35:41.544Z,10.50
2023-03-12T07:38:27.772Z,10.50
2023-03-12T07:41:13.714Z,10.60
2023-03-12T07:43:59.310Z,10.80
2023-03-12T07:46:45.784Z,11.00
2023-03-12T07:49:31.263Z,11.00
2023-03-12T07:52:18.125Z,10.90
2023-03-12T07:55:04.392Z,11.00
2023-03-12T07:57:50.116Z,11.10
2023-03-12T08:00:35.889Z,11.20
2023-03-12T08:03:21.738Z,11.10
2023-03-12T08:06:07.652Z,11.20
2023-03-12T08:08:53.609Z,11.30
2023-03-12T08:11:39.177Z,11.30
2023-03-12T08:14:24.883Z,11.30
2023-03-12T08:17:11.635Z,11.30
2023-03-12T08:19:56.812Z,11.50
2023-03-12T08:22:42.589Z,11.60
2023-03-12T08:25:28.705Z,11.60
2023-03-12T08:28:14.735Z,11.70
2023-03-12T08:31:00.982Z,11.70
2023-03-12T08:33:47.036Z,11.80
2023-03-12T08:36:33.039Z,11.70
2023-03-12T08:39:18.828Z,11.70
2023-03-12T08:42:05.603Z,11.90
2023-03-12T08:44:51.236Z,12.20
2023-03-12T08:47:37.601Z,12.30
2023-03-12T08:50:25.312Z,12.60
2023-03-12T08:53:10.820Z,12.60
2023-03-12T08:55:56.644Z,12.60
2023-03-12T08:58:42.347Z,12.80
2023-03-12T09:01:28.051Z,13.00
2023-03-12T09:04:13.614Z,13.10
2023-03-12T09:07:00.937Z,12.90
2023-03-12T09:09:46.874Z,12.80
2023-03-12T09:12:32.793Z,12.70
2023-03-12T09:15:18.811Z,13.10
2023-03-12T09:18:04.609Z,13.30
2023-03-12T09:20:50.300Z,13.20
2023-03-12T09:23:40.970Z,13.40
2023-03-12T09:26:26.836Z,13.60
2023-03-12T09:29:12.519Z,13.80
2023-03-12T09:31:59.027Z,13.90
2023-03-12T09:34:44.480Z,13.90
2023-03-12T09:37:32.322Z,13.90
2023-03-12T09:40:20.080Z,14.00
2023-03-12T09:43:13.865Z,14.20
2023-03-12T09:46:00.314Z,14.20
2023-03-12T09:48:47.619Z,14.20
2023-03-12T09:51:40.641Z,14.30
2023-03-12T09:54:36.957Z,14.60
2023-03-12T09:57:24.553Z,14.60
2023-03-12T10:00:15.442Z,14.30
2023-03-12T10:03:07.104Z,13.90
2023-03-12T10:05:52.755Z,14.30
2023-03-12T10:08:44.532Z,14.90
2023-03-12T10:11:36.658Z,15.20
2023-03-12T10:14:29.332Z,15.30
2023-03-12T10:17:17.866Z,15.50
2023-03-12T10:20:18.648Z,15.40
2023-03-12T10:23:04.086Z,15.20
2023-03-12T10:26:15.509Z,14.80
2023-03-12T10:29:10.219Z,14.50
2023-03-12T10:31:59.192Z,14.60
2023-03-12T10:35:12.996Z,15.10
2023-03-12T10:38:01.643Z,15.30
2023-03-12T10:40:47.492Z,15.20
2023-03-12T10:43:34.688Z,15.40
2023-03-12T10:46:20.216Z,15.20
2023-03-12T10:49:21.452Z,15.30
2023-03-12T10:52:17.266Z,15.40
2023-03-12T10:55:10.455Z,15.60
2023-03-12T10:57:58.575Z,15.80
2023-03-12T11:00:58.378Z,16.00
2023-03-12T11:04:14.536Z,16.10
2023-03-12T11:07:16.609Z,15.90
2023-03-12T11:10:05.089Z,16.00
2023-03-12T11:12:55.164Z,16.10
2023-03-12T11:15:42.993Z,15.90
2023-03-12T11:18:30.304Z,16.00
2023-03-12T11:21:17.414Z,15.90
2023-03-12T11:24:04.836Z,16.00
2023-03-12T11:27:26.937Z,16.10
2023-03-12T11:30:14.763Z,16.10
2023-03-12T11:33:02.270Z,16.30
2023-03-12T11:35:51.176Z,16.40
2023-03-12T11:38:41.502Z,16.50
2023-03-12T11:41:33.375Z,16.50
2023-03-12T11:44:25.250Z,16.40
2023-03-12T11:47:30.978Z,16.50
2023-03-12T11:50:25.715Z,16.20
2023-03-12T11:53:30.195Z,16.20
2023-03-12T11:56:22.196Z,16.00
2023-03-12T11:59:23.315Z,16.10
2023-03-12T12:02:27.764Z,16.20
2023-03-12T12:05:22.752Z,16.30
2023-03-12T12:08:17.484Z,16.40
2023-03-12T12:11:02.882Z,16.40
2023-03-12T12:14:02.660Z,16.20
2023-03-12T12:16:55.949Z,16.30
2023-03-12T12:19:47.629Z,16.40
2023-03-12T12:22:43.032Z,16.10
2023-03-12T12:25:34.173Z,16.20
2023-03-12T12:28:39.136Z,16.20
2023-03-12T12:31:45.127Z,16.20
2023-03-12T12:34:33.833Z,16.10
2023-03-12T12:37:32.056Z,16.10
2023-03-12T12:40:17.907Z,16.10
2023-03-12T12:43:03.642Z,16.20
2023-03-12T12:45:52.495Z,16.30
2023-03-12T12:48:46.537Z,16.20
2023-03-12T12:51:35.403Z,16.00
2023-03-12T12:54:31.868Z,16.00
2023-03-12T12:57:23.616Z,16.20
2023-03-12T13:00:22.014Z,16.30
2023-03-12T13:03:47.658Z,16.50
2023-03-12T13:06:52.412Z,16.60
2023-03-12T13:09:43.509Z,16.60
2023-03-12T13:12:47.362Z,16.60
2023-03-12T13:15:35.251Z,16.60
2023-03-12T13:18:33.614Z,16.60
2023-03-12T13:21:43.990Z,16.30
2023-03-12T13:24:44.888Z,16.50
2023-03-12T13:27:32.047Z,16.50
2023-03-12T13:30:32.853Z,16.50
2023-03-12T13:33:21.761Z,16.60
2023-03-12T13:36:10.672Z,16.60
2023-03-12T13:39:02.228Z,16.60
2023-03-12T13:41:52.287Z,16.60
2023-03-12T13:44:39.572Z,16.60
2023-03-12T13:47:32.279Z,16.40
2023-03-12T13:50:18.322Z,16.50
2023-03-12T13:53:03.892Z,16.60
2023-03-12T13:55:59.105Z,16.80
2023-03-12T13:58:49.790Z,16.80
2023-03-12T14:01:37.031Z,16.60
2023-03-12T14:04:32.130Z,16.70
2023-03-12T14:07:20.970Z,16.60
2023-03-12T14:10:14.373Z,16.60
2023-03-12T14:13:01.329Z,16.80
2023-03-12T14:16:06.074Z,16.70
2023-03-12T14:18:52.920Z,16.50
2023-03-12T14:21:40.129Z,16.60
2023-03-12T14:24:25.926Z,16.70
2023-03-12T14:27:13.981Z,16.70
2023-03-12T14:29:59.778Z,16.60
2023-03-12T14:32:48.162Z,16.60
2023-03-12T14:35:37.238Z,16.50
2023-03-12T14:38:23.001Z,16.50
2023-03-12T14:41:14.671Z,16.60
2023-03-12T14:44:17.664Z,16.60
2023-03-12T14:47:06.973Z,16.60
2023-03-12T14:49:54.831Z,16.50
2023-03-12T14:52:40.298Z,16.50
2023-03-12T14:55:26.546Z,16.50
2023-03-12T14:58:20.086Z,16.50
2023-03-12T15:01:07.189Z,16.50
2023-03-12T15:03:58.849Z,16.50
2023-03-12T15:06:47.044Z,16.60
2023-03-12T15:09:34.260Z,16.70
2023-03-12T15:12:24.702Z,16.70
2023-03-12T15:15:11.807Z,16.70
2023-03-12T15:17:58.137Z,16.80
2023-03-12T15:20:44.792Z,16.90
2023-03-12T15:23:32.328Z,17.00
2023-03-12T15:26:20.736Z,16.90
2023-03-12T15:29:26.457Z,16.80
2023-03-12T15:32:16.504Z,16.80
2023-03-12T15:35:12.055Z,16.80
2023-03-12T15:37:57.663Z,16.90
2023-03-12T15:40:48.586Z,16.90
2023-03-12T15:43:34.356Z,16.80
2023-03-12T15:46:19.968Z,16.90
2023-03-12T15:49:17.294Z,16.90
2023-03-12T15:52:19.518Z,16.90
2023-03-12T15:55:05.233Z,16.80
2023-03-12T15:57:52.259Z,16.80
2023-03-12T16:00:46.545Z,16.70
2023-03-12T16:03:32.985Z,16.70
2023-03-12T16:06:19.657Z,16.60
2023-03-12T16:09:06.239Z,16.70
2023-03-12T16:11:52.116Z,16.60
2023-03-12T16:14:38.280Z,16.60
2023-03-12T16:17:24.072Z,16.60
2023-03-12T16:20:11.550Z,16.50
2023-03-12T16:22:57.150Z,16.40
2023-03-12T16:25:46.000Z,16.30
2023-03-12T16:28:33.549Z,16.20
2023-03-12T16:31:19.546Z,16.20
2023-03-12T16:34:05.355Z,16.20
2023-03-12T16:36:51.172Z,16.00
2023-03-12T16:39:36.720Z,16.10
2023-03-12T16:42:22.479Z,16.10
2023-03-12T16:45:13.000Z,16.00
2023-03-12T16:48:03.885Z,15.90
2023-03-12T16:50:57.885Z,15.90
2023-03-12T16:53:43.989Z,15.80
2023-03-12T16:56:29.864Z,15.80
2023-03-12T16:59:24.237Z,15.80
2023-03-12T17:02:17.327Z,15.70
2023-03-12T17:05:02.784Z,15.70
2023-03-12T17:07:48.539Z,15.60
2023-03-12T17:10:34.449Z,15.50
2023-03-12T17:13:24.526Z,15.50
2023-03-12T17:16:11.262Z,15.40
2023-03-12T17:18:56.955Z,15.30
2023-03-12T17:21:43.381Z,15.30
2023-03-12T17:24:28.788Z,15.30
2023-03-12T17:27:15.522Z,15.20
2023-03-12T17:30:01.529Z,15.20
2023-03-12T17:32:47.234Z,15.20
2023-03-12T17:35:33.187Z,15.20
2023-03-12T17:38:18.654Z,15.10
2023-03-12T17:41:09.367Z,15.10
2023-03-12T17:44:01.564Z,15.00
2023-03-12T17:46:58.263Z,14.90
2023-03-12T17:49:44.370Z,14.90
2023-03-12T17:52:31.954Z,14.90
2023-03-12T17:55:18.056Z,14.90
2023-03-12T17:58:06.185Z,14.80
2023-03-12T18:00:51.566Z,14.80
2023-03-12T18:03:37.528Z,14.70
2023-03-12T18:06:23.635Z,14.70
2023-03-12T18:09:09.214Z,14.70
2023-03-12T18:11:54.820Z,14.60
2023-03-12T18:14:40.576Z,14.50
2023-03-12T18:17:26.450Z,14.50
2023-03-12T18:20:16.604Z,14.50
2023-03-12T18:23:03.818Z,14.50
2023-03-12T18:25:49.704Z,14.50
2023-03-12T18:28:35.512Z,14.50
2023-03-12T18:31:21.636Z,14.40
2023-03-12T18:34:07.260Z,14.30
2023-03-12T18:36:53.048Z,14.20
2023-03-12T18:39:38.532Z,14.10
2023-03-12T18:42:25.677Z,14.00
2023-03-12T18:45:11.917Z,13.90
2023-03-12T18:47:57.641Z,13.90
2023-03-12T18:50:43.351Z,13.80
2023-03-12T18:53:29.273Z,13.70
2023-03-12T18:56:14.900Z,13.60
2023-03-12T18:59:00.521Z,13.50
2023-03-12T19:01:46.277Z,13.40
2023-03-12T19:04:32.156Z,13.40
2023-03-12T19:07:19.720Z,13.30
2023-03-12T19:10:06.325Z,13.20
2023-03-12T19:12:54.046Z,13.10
2023-03-12T19:15:39.638Z,13.10
2023-03-12T19:18:25.525Z,13.00
2023-03-12T19:21:11.030Z,12.90
2023-03-12T19:23:56.654Z,12.90
2023-03-12T19:26:42.430Z,12.80
2023-03-12T19:29:28.256Z,12.80
2023-03-12T19:32:14.155Z,12.70
2023-03-12T19:34:59.805Z,12.70
2023-03-12T19:37:45.566Z,12.70
2023-03-12T19:40:31.783Z,12.70
2023-03-12T19:43:17.749Z,12.50
2023-03-12T19:46:03.700Z,12.50
2023-03-12T19:48:49.900Z,12.40
2023-03-12T19:51:36.017Z,12.40
2023-03-12T19:54:21.924Z,12.30
2023-03-12T19:57:07.815Z,12.30
2023-03-12T19:59:53.416Z,12.30
2023-03-12T20:02:39.508Z,12.30
2023-03-12T20:05:25.606Z,12.20
2023-03-12T20:08:11.350Z,12.10
2023-03-12T20:11:10.124Z,12.10
2023-03-12T20:13:56.023Z,12.10
2023-03-12T20:16:41.613Z,11.90
2023-03-12T20:19:26.912Z,11.80
2023-03-12T20:22:13.005Z,11.70
2023-03-12T20:24:59.715Z,11.70
2023-03-12T20:27:48.048Z,11.70
2023-03-12T20:30:35.710Z,11.70
2023-03-12T20:37:37.097Z,11.70
2023-03-12T20:40:05.740Z,11.70
2023-03-12T20:42:51.121Z,11.80
2023-03-12T20:45:36.836Z,11.80
2023-03-12T20:48:23.179Z,11.80
2023-03-12T20:51:08.795Z,11.80
2023-03-12T20:53:54.818Z,11.80
2023-03-12T20:56:43.735Z,11.80
2023-03-12T20:59:29.248Z,11.90
2023-03-12T21:02:15.284Z,11.90
2023-03-12T21:05:00.732Z,11.90
2023-03-12T21:07:54.371Z,11.80
2023-03-12T21:10:40.114Z,11.80
2023-03-12T21:13:29.185Z,11.80
2023-03-12T21:16:15.526Z,11.80
2023-03-12T21:19:03.826Z,11.80
2023-03-12T21:21:49.759Z,11.80
2023-03-12T21:24:36.008Z,11.70
2023-03-12T21:27:21.854Z,11.60
2023-03-12T21:30:07.881Z,11.60
2023-03-12T21:32:53.300Z,11.60
2023-03-12T21:36:06.577Z,11.60
2023-03-12T21:39:01.977Z,11.60
2023-03-12T21:41:47.440Z,11.60
2023-03-12T21:44:35.030Z,11.50
2023-03-12T21:47:20.496Z,11.50
2023-03-12T21:50:06.306Z,11.50
2023-03-12T21:52:51.949Z,11.50
2023-03-12T21:55:37.677Z,11.50
2023-03-12T21:58:23.039Z,11.50
2023-03-12T22:01:10.183Z,11.40
2023-03-12T22:03:55.694Z,11.40
2023-03-12T22:06:42.435Z,11.30
2023-03-12T22:09:27.982Z,12.30
2023-03-12T22:12:15.611Z,11.30
2023-03-12T22:15:00.991Z,11.30
2023-03-12T22:17:46.730Z,11.20
2023-03-12T22:20:34.324Z,11.20
2023-03-12T22:23:20.607Z,11.20
2023-03-12T22:26:06.769Z,11.20
2023-03-12T22:28:53.788Z,11.20
2023-03-12T22:31:39.453Z,11.10
2023-03-12T22:34:25.084Z,11.10
2023-03-12T22:37:10.649Z,11.10
2023-03-12T22:40:01.445Z,11.00
2023-03-12T22:42:50.525Z,11.00
2023-03-12T22:45:36.419Z,11.00
2023-03-12T22:48:21.699Z,11.00
2023-03-12T22:51:07.399Z,10.90
2023-03-12T22:53:53.305Z,10.70
2023-03-12T22:56:39.983Z,10.60
2023-03-12T22:59:25.690Z,10.60
2023-03-12T23:02:11.214Z,10.60
2023-03-12T23:04:57.008Z,10.60
2023-03-12T23:07:42.453Z,10.60
2023-03-12T23:10:27.721Z,10.50
2023-03-12T23:13:14.048Z,10.40
2023-03-12T23:16:03.211Z,10.40
2023-03-12T23:18:49.125Z,10.40
2023-03-12T23:21:35.015Z,10.30
2023-03-12T23:24:22.098Z,10.30
2023-03-12T23:27:07.700Z,10.10
2023-03-12T23:29:53.644Z,10.00
2023-03-12T23:32:39.125Z,10.00
2023-03-12T23:35:24.893Z,10.00
2023-03-12T23:38:10.311Z,9.90
2023-03-12T23:41:03.437Z,9.80
2023-03-12T23:43:49.294Z,9.70
2023-03-12T23:46:34.841Z,9.70
2023-03-12T23:49:20.435Z,9.70
2023-03-12T23:52:06.415Z,9.70
2023-03-12T23:54:52.207Z,9.60
2023-03-12T23:57:37.799Z,9.40
